Terminal Aerodrome Forecast
Issued by NWS Wilmington, OH

Current Version | Previous Version | Graphics & Text | Print | Product List | Glossary On
Versions: 1 2 3 4 5 6 7 8 9 10 11 12 13 14 15 16
386
FTUS41 KILN 241748
TAFILN
TAF
KILN 241748Z 2418/2518 11007KT P6SM VCSH SCT015 OVC025
     FM242300 11008KT 5SM -SHRA VCTS BKN025 OVC050CB
     FM250300 17009KT P6SM VCSH OVC008
     FM250900 20008KT 5SM BR VCSH OVC004=

USA.gov is the U.S. government's official web portal to all federal, state and local government web resources and services.